sensor_id;sensor_type;location;lat;lon;timestamp;P1;durP1;ratioP1;P2;durP2;ratioP2
76610;SDS011;65503;48.534;9.062;2023-09-18T00:00:17;6.00;;;3.00;;
76610;SDS011;65503;48.534;9.062;2023-09-18T00:02:44;8.25;;;3.22;;
76610;SDS011;65503;48.534;9.062;2023-09-18T00:05:10;6.38;;;3.42;;
76610;SDS011;65503;48.534;9.062;2023-09-18T00:07:37;7.28;;;3.20;;
76610;SDS011;65503;48.534;9.062;2023-09-18T00:10:03;10.32;;;4.68;;
76610;SDS011;65503;48.534;9.062;2023-09-18T00:12:30;7.85;;;3.40;;
76610;SDS011;65503;48.534;9.062;2023-09-18T00:14:57;7.88;;;3.30;;
76610;SDS011;65503;48.534;9.062;2023-09-18T00:17:23;10.45;;;4.30;;
76610;SDS011;65503;48.534;9.062;2023-09-18T00:19:50;5.50;;;3.25;;
76610;SDS011;65503;48.534;9.062;2023-09-18T00:22:17;7.32;;;3.65;;
76610;SDS011;65503;48.534;9.062;2023-09-18T00:24:44;7.03;;;3.50;;
76610;SDS011;65503;48.534;9.062;2023-09-18T00:27:11;7.25;;;3.75;;
76610;SDS011;65503;48.534;9.062;2023-09-18T00:29:37;7.85;;;3.75;;
76610;SDS011;65503;48.534;9.062;2023-09-18T00:32:04;6.68;;;3.53;;
76610;SDS011;65503;48.534;9.062;2023-09-18T00:34:32;5.90;;;2.92;;
76610;SDS011;65503;48.534;9.062;2023-09-18T00:36:58;7.32;;;3.45;;
76610;SDS011;65503;48.534;9.062;2023-09-18T00:39:26;8.60;;;3.80;;
76610;SDS011;65503;48.534;9.062;2023-09-18T00:41:52;7.85;;;3.10;;
76610;SDS011;65503;48.534;9.062;2023-09-18T00:44:20;6.80;;;3.15;;
76610;SDS011;65503;48.534;9.062;2023-09-18T00:46:48;6.65;;;2.90;;
76610;SDS011;65503;48.534;9.062;2023-09-18T00:49:16;5.72;;;3.13;;
76610;SDS011;65503;48.534;9.062;2023-09-18T00:51:45;7.68;;;3.55;;
76610;SDS011;65503;48.534;9.062;2023-09-18T00:54:14;7.38;;;2.97;;
76610;SDS011;65503;48.534;9.062;2023-09-18T00:56:43;6.68;;;3.25;;
76610;SDS011;65503;48.534;9.062;2023-09-18T00:59:09;7.10;;;2.92;;
76610;SDS011;65503;48.534;9.062;2023-09-18T01:01:36;6.47;;;3.30;;
76610;SDS011;65503;48.534;9.062;2023-09-18T01:04:05;6.63;;;3.10;;
76610;SDS011;65503;48.534;9.062;2023-09-18T01:06:32;6.90;;;3.38;;
76610;SDS011;65503;48.534;9.062;2023-09-18T01:08:58;6.65;;;3.10;;
76610;SDS011;65503;48.534;9.062;2023-09-18T01:11:29;5.40;;;3.17;;
76610;SDS011;65503;48.534;9.062;2023-09-18T01:14:06;5.72;;;3.05;;
76610;SDS011;65503;48.534;9.062;2023-09-18T01:16:50;5.07;;;2.67;;
76610;SDS011;65503;48.534;9.062;2023-09-18T01:19:35;6.05;;;3.13;;
76610;SDS011;65503;48.534;9.062;2023-09-18T01:22:16;6.70;;;3.20;;
76610;SDS011;65503;48.534;9.062;2023-09-18T01:24:44;6.03;;;3.05;;
76610;SDS011;65503;48.534;9.062;2023-09-18T01:27:16;7.18;;;3.10;;
76610;SDS011;65503;48.534;9.062;2023-09-18T01:29:44;7.18;;;3.15;;
76610;SDS011;65503;48.534;9.062;2023-09-18T01:32:11;5.38;;;2.80;;
76610;SDS011;65503;48.534;9.062;2023-09-18T01:34:41;6.55;;;3.17;;
76610;SDS011;65503;48.534;9.062;2023-09-18T01:37:15;7.88;;;2.95;;
76610;SDS011;65503;48.534;9.062;2023-09-18T01:39:44;11.57;;;3.67;;
76610;SDS011;65503;48.534;9.062;2023-09-18T01:42:13;9.50;;;3.17;;
76610;SDS011;65503;48.534;9.062;2023-09-18T01:44:41;10.88;;;3.60;;
76610;SDS011;65503;48.534;9.062;2023-09-18T01:47:12;9.23;;;4.00;;
76610;SDS011;65503;48.534;9.062;2023-09-18T01:49:40;12.18;;;4.00;;
76610;SDS011;65503;48.534;9.062;2023-09-18T01:52:07;8.60;;;3.70;;
76610;SDS011;65503;48.534;9.062;2023-09-18T01:54:34;7.32;;;3.83;;
76610;SDS011;65503;48.534;9.062;2023-09-18T01:57:02;6.30;;;3.65;;
76610;SDS011;65503;48.534;9.062;2023-09-18T01:59:29;7.35;;;3.50;;
76610;SDS011;65503;48.534;9.062;2023-09-18T02:01:56;6.93;;;4.00;;
76610;SDS011;65503;48.534;9.062;2023-09-18T02:04:23;9.05;;;3.80;;
76610;SDS011;65503;48.534;9.062;2023-09-18T02:07:11;10.43;;;4.00;;
76610;SDS011;65503;48.534;9.062;2023-09-18T02:09:38;8.77;;;4.25;;
76610;SDS011;65503;48.534;9.062;2023-09-18T02:12:05;9.90;;;4.55;;
76610;SDS011;65503;48.534;9.062;2023-09-18T02:14:32;9.80;;;4.30;;
76610;SDS011;65503;48.534;9.062;2023-09-18T02:17:00;13.82;;;4.72;;
76610;SDS011;65503;48.534;9.062;2023-09-18T02:19:26;8.75;;;4.85;;
76610;SDS011;65503;48.534;9.062;2023-09-18T02:21:55;10.43;;;4.90;;
76610;SDS011;65503;48.534;9.062;2023-09-18T02:24:22;9.50;;;4.30;;
76610;SDS011;65503;48.534;9.062;2023-09-18T02:26:49;8.82;;;4.50;;
76610;SDS011;65503;48.534;9.062;2023-09-18T02:29:16;9.38;;;4.53;;
76610;SDS011;65503;48.534;9.062;2023-09-18T02:31:43;11.77;;;4.63;;
76610;SDS011;65503;48.534;9.062;2023-09-18T02:34:09;10.00;;;5.05;;
76610;SDS011;65503;48.534;9.062;2023-09-18T02:36:36;9.75;;;5.18;;
76610;SDS011;65503;48.534;9.062;2023-09-18T02:39:02;8.10;;;4.28;;
76610;SDS011;65503;48.534;9.062;2023-09-18T02:41:29;9.02;;;3.95;;
76610;SDS011;65503;48.534;9.062;2023-09-18T02:43:56;11.70;;;4.45;;
76610;SDS011;65503;48.534;9.062;2023-09-18T02:46:22;12.55;;;3.88;;
76610;SDS011;65503;48.534;9.062;2023-09-18T02:48:49;9.57;;;3.78;;
76610;SDS011;65503;48.534;9.062;2023-09-18T02:53:42;7.80;;;3.50;;
76610;SDS011;65503;48.534;9.062;2023-09-18T02:56:09;7.10;;;3.35;;
76610;SDS011;65503;48.534;9.062;2023-09-18T02:58:36;8.05;;;3.78;;
76610;SDS011;65503;48.534;9.062;2023-09-18T03:01:02;9.18;;;4.45;;
76610;SDS011;65503;48.534;9.062;2023-09-18T03:03:31;9.18;;;3.92;;
76610;SDS011;65503;48.534;9.062;2023-09-18T03:06:01;9.15;;;4.07;;
76610;SDS011;65503;48.534;9.062;2023-09-18T03:08:29;6.38;;;3.53;;
76610;SDS011;65503;48.534;9.062;2023-09-18T03:10:56;10.88;;;4.47;;
76610;SDS011;65503;48.534;9.062;2023-09-18T03:13:22;7.78;;;3.90;;
76610;SDS011;65503;48.534;9.062;2023-09-18T03:15:49;11.15;;;4.15;;
76610;SDS011;65503;48.534;9.062;2023-09-18T03:18:16;8.57;;;4.47;;
76610;SDS011;65503;48.534;9.062;2023-09-18T03:20:42;11.70;;;4.65;;
76610;SDS011;65503;48.534;9.062;2023-09-18T03:23:09;10.65;;;5.00;;
76610;SDS011;65503;48.534;9.062;2023-09-18T03:25:36;10.40;;;5.60;;
76610;SDS011;65503;48.534;9.062;2023-09-18T03:28:16;10.32;;;5.15;;
76610;SDS011;65503;48.534;9.062;2023-09-18T03:30:43;10.77;;;5.30;;
76610;SDS011;65503;48.534;9.062;2023-09-18T03:33:10;10.60;;;4.40;;
76610;SDS011;65503;48.534;9.062;2023-09-18T03:35:46;9.65;;;4.95;;
76610;SDS011;65503;48.534;9.062;2023-09-18T03:38:13;9.80;;;4.35;;
76610;SDS011;65503;48.534;9.062;2023-09-18T03:40:40;10.35;;;4.20;;
76610;SDS011;65503;48.534;9.062;2023-09-18T03:43:07;8.70;;;3.88;;
76610;SDS011;65503;48.534;9.062;2023-09-18T03:45:35;9.65;;;3.28;;
76610;SDS011;65503;48.534;9.062;2023-09-18T03:48:01;8.48;;;2.72;;
76610;SDS011;65503;48.534;9.062;2023-09-18T03:50:28;8.98;;;3.05;;
76610;SDS011;65503;48.534;9.062;2023-09-18T03:52:55;6.30;;;2.72;;
76610;SDS011;65503;48.534;9.062;2023-09-18T03:55:21;8.35;;;2.58;;
76610;SDS011;65503;48.534;9.062;2023-09-18T03:57:48;6.85;;;2.83;;
76610;SDS011;65503;48.534;9.062;2023-09-18T04:00:14;8.60;;;2.50;;
76610;SDS011;65503;48.534;9.062;2023-09-18T04:02:42;8.95;;;2.40;;
76610;SDS011;65503;48.534;9.062;2023-09-18T04:05:08;10.23;;;2.58;;
76610;SDS011;65503;48.534;9.062;2023-09-18T04:10:02;8.63;;;2.55;;
76610;SDS011;65503;48.534;9.062;2023-09-18T04:12:30;5.72;;;2.55;;
76610;SDS011;65503;48.534;9.062;2023-09-18T04:14:56;8.55;;;2.97;;
76610;SDS011;65503;48.534;9.062;2023-09-18T04:17:23;6.40;;;2.67;;
76610;SDS011;65503;48.534;9.062;2023-09-18T04:19:49;7.35;;;2.53;;
76610;SDS011;65503;48.534;9.062;2023-09-18T04:22:16;6.90;;;3.03;;
76610;SDS011;65503;48.534;9.062;2023-09-18T04:24:42;8.65;;;2.85;;
76610;SDS011;65503;48.534;9.062;2023-09-18T04:27:09;9.30;;;3.50;;
76610;SDS011;65503;48.534;9.062;2023-09-18T04:29:36;7.22;;;2.90;;
76610;SDS011;65503;48.534;9.062;2023-09-18T04:32:03;7.22;;;3.38;;
76610;SDS011;65503;48.534;9.062;2023-09-18T04:34:30;8.13;;;3.03;;
76610;SDS011;65503;48.534;9.062;2023-09-18T04:36:57;8.27;;;3.20;;
76610;SDS011;65503;48.534;9.062;2023-09-18T04:39:23;8.88;;;3.50;;
76610;SDS011;65503;48.534;9.062;2023-09-18T04:41:50;8.82;;;3.40;;
76610;SDS011;65503;48.534;9.062;2023-09-18T04:44:16;11.48;;;3.45;;
76610;SDS011;65503;48.534;9.062;2023-09-18T04:46:43;5.72;;;3.30;;
76610;SDS011;65503;48.534;9.062;2023-09-18T04:49:10;6.80;;;3.63;;
76610;SDS011;65503;48.534;9.062;2023-09-18T04:51:37;9.88;;;4.35;;
76610;SDS011;65503;48.534;9.062;2023-09-18T04:54:05;7.82;;;3.72;;
76610;SDS011;65503;48.534;9.062;2023-09-18T04:56:32;14.05;;;4.13;;
76610;SDS011;65503;48.534;9.062;2023-09-18T04:58:59;12.30;;;4.20;;
76610;SDS011;65503;48.534;9.062;2023-09-18T05:01:26;10.27;;;3.50;;
76610;SDS011;65503;48.534;9.062;2023-09-18T05:03:53;11.32;;;3.75;;
76610;SDS011;65503;48.534;9.062;2023-09-18T05:06:20;9.85;;;3.35;;
76610;SDS011;65503;48.534;9.062;2023-09-18T05:08:47;7.38;;;3.33;;
76610;SDS011;65503;48.534;9.062;2023-09-18T05:11:13;10.38;;;3.60;;
76610;SDS011;65503;48.534;9.062;2023-09-18T05:13:40;6.97;;;3.10;;
76610;SDS011;65503;48.534;9.062;2023-09-18T05:16:07;9.80;;;3.03;;
76610;SDS011;65503;48.534;9.062;2023-09-18T05:18:33;11.10;;;2.72;;
76610;SDS011;65503;48.534;9.062;2023-09-18T05:21:00;8.73;;;3.08;;
76610;SDS011;65503;48.534;9.062;2023-09-18T05:23:28;10.80;;;3.45;;
76610;SDS011;65503;48.534;9.062;2023-09-18T05:25:56;10.20;;;3.30;;
76610;SDS011;65503;48.534;9.062;2023-09-18T05:28:22;9.07;;;2.85;;
76610;SDS011;65503;48.534;9.062;2023-09-18T05:30:49;10.35;;;2.90;;
76610;SDS011;65503;48.534;9.062;2023-09-18T05:33:15;13.95;;;2.67;;
76610;SDS011;65503;48.534;9.062;2023-09-18T05:35:43;13.35;;;2.85;;
76610;SDS011;65503;48.534;9.062;2023-09-18T05:38:11;7.47;;;2.67;;
76610;SDS011;65503;48.534;9.062;2023-09-18T05:40:44;10.50;;;2.38;;
76610;SDS011;65503;48.534;9.062;2023-09-18T05:43:11;8.80;;;2.70;;
76610;SDS011;65503;48.534;9.062;2023-09-18T05:45:38;11.45;;;2.40;;
76610;SDS011;65503;48.534;9.062;2023-09-18T05:48:04;5.80;;;2.63;;
76610;SDS011;65503;48.534;9.062;2023-09-18T05:50:31;7.85;;;2.42;;
76610;SDS011;65503;48.534;9.062;2023-09-18T05:52:59;6.68;;;2.70;;
76610;SDS011;65503;48.534;9.062;2023-09-18T05:55:26;15.60;;;3.03;;
76610;SDS011;65503;48.534;9.062;2023-09-18T05:57:53;7.75;;;2.47;;
76610;SDS011;65503;48.534;9.062;2023-09-18T06:00:21;9.20;;;2.47;;
76610;SDS011;65503;48.534;9.062;2023-09-18T06:02:48;11.75;;;2.42;;
76610;SDS011;65503;48.534;9.062;2023-09-18T06:05:15;6.63;;;2.42;;
76610;SDS011;65503;48.534;9.062;2023-09-18T06:07:42;8.05;;;2.50;;
76610;SDS011;65503;48.534;9.062;2023-09-18T06:10:10;8.60;;;2.80;;
76610;SDS011;65503;48.534;9.062;2023-09-18T06:12:40;10.20;;;2.33;;
76610;SDS011;65503;48.534;9.062;2023-09-18T06:15:07;7.57;;;1.88;;
76610;SDS011;65503;48.534;9.062;2023-09-18T06:17:38;9.18;;;1.83;;
76610;SDS011;65503;48.534;9.062;2023-09-18T06:20:07;8.52;;;2.35;;
76610;SDS011;65503;48.534;9.062;2023-09-18T06:22:36;5.75;;;1.75;;
76610;SDS011;65503;48.534;9.062;2023-09-18T06:25:04;6.05;;;2.58;;
76610;SDS011;65503;48.534;9.062;2023-09-18T06:27:35;9.80;;;2.83;;
76610;SDS011;65503;48.534;9.062;2023-09-18T06:30:06;7.90;;;2.17;;
76610;SDS011;65503;48.534;9.062;2023-09-18T06:32:32;6.75;;;1.85;;
76610;SDS011;65503;48.534;9.062;2023-09-18T06:34:59;7.85;;;1.70;;
76610;SDS011;65503;48.534;9.062;2023-09-18T06:37:27;7.13;;;2.15;;
76610;SDS011;65503;48.534;9.062;2023-09-18T06:39:53;5.32;;;1.52;;
76610;SDS011;65503;48.534;9.062;2023-09-18T06:42:20;7.25;;;2.20;;
76610;SDS011;65503;48.534;9.062;2023-09-18T06:44:46;6.20;;;1.95;;
76610;SDS011;65503;48.534;9.062;2023-09-18T06:47:13;6.22;;;1.88;;
76610;SDS011;65503;48.534;9.062;2023-09-18T06:49:41;5.05;;;1.83;;
76610;SDS011;65503;48.534;9.062;2023-09-18T06:52:09;5.40;;;1.80;;
76610;SDS011;65503;48.534;9.062;2023-09-18T06:54:35;4.95;;;1.77;;
76610;SDS011;65503;48.534;9.062;2023-09-18T06:57:02;7.90;;;2.58;;
76610;SDS011;65503;48.534;9.062;2023-09-18T06:59:29;4.90;;;1.50;;
76610;SDS011;65503;48.534;9.062;2023-09-18T07:01:57;5.40;;;1.40;;
76610;SDS011;65503;48.534;9.062;2023-09-18T07:04:24;6.15;;;1.55;;
76610;SDS011;65503;48.534;9.062;2023-09-18T07:06:50;4.25;;;1.42;;
76610;SDS011;65503;48.534;9.062;2023-09-18T07:09:19;6.53;;;1.50;;
76610;SDS011;65503;48.534;9.062;2023-09-18T07:11:49;4.53;;;1.50;;
76610;SDS011;65503;48.534;9.062;2023-09-18T07:14:15;5.40;;;1.98;;
76610;SDS011;65503;48.534;9.062;2023-09-18T07:16:42;7.00;;;1.50;;
76610;SDS011;65503;48.534;9.062;2023-09-18T07:19:09;4.57;;;1.70;;
76610;SDS011;65503;48.534;9.062;2023-09-18T07:21:38;7.40;;;1.45;;
76610;SDS011;65503;48.534;9.062;2023-09-18T07:24:06;4.20;;;1.60;;
76610;SDS011;65503;48.534;9.062;2023-09-18T07:26:33;7.20;;;2.20;;
76610;SDS011;65503;48.534;9.062;2023-09-18T07:29:00;11.18;;;1.63;;
76610;SDS011;65503;48.534;9.062;2023-09-18T07:31:28;7.35;;;1.52;;
76610;SDS011;65503;48.534;9.062;2023-09-18T07:33:54;13.15;;;1.58;;
76610;SDS011;65503;48.534;9.062;2023-09-18T07:36:21;8.40;;;1.85;;
76610;SDS011;65503;48.534;9.062;2023-09-18T07:38:47;7.80;;;2.13;;
76610;SDS011;65503;48.534;9.062;2023-09-18T07:41:14;8.40;;;1.83;;
76610;SDS011;65503;48.534;9.062;2023-09-18T07:43:41;6.70;;;1.58;;
76610;SDS011;65503;48.534;9.062;2023-09-18T07:46:08;7.35;;;1.63;;
76610;SDS011;65503;48.534;9.062;2023-09-18T07:48:34;6.22;;;1.80;;
76610;SDS011;65503;48.534;9.062;2023-09-18T07:51:01;8.80;;;2.20;;
76610;SDS011;65503;48.534;9.062;2023-09-18T07:53:28;6.10;;;1.92;;
76610;SDS011;65503;48.534;9.062;2023-09-18T07:55:57;6.82;;;1.50;;
76610;SDS011;65503;48.534;9.062;2023-09-18T07:58:25;4.47;;;1.50;;
76610;SDS011;65503;48.534;9.062;2023-09-18T08:00:55;7.05;;;1.98;;
76610;SDS011;65503;48.534;9.062;2023-09-18T08:03:23;7.13;;;1.38;;
76610;SDS011;65503;48.534;9.062;2023-09-18T08:05:51;5.43;;;1.50;;
76610;SDS011;65503;48.534;9.062;2023-09-18T08:08:19;8.20;;;1.55;;
76610;SDS011;65503;48.534;9.062;2023-09-18T08:10:46;7.43;;;2.20;;
76610;SDS011;65503;48.534;9.062;2023-09-18T08:13:13;16.98;;;1.85;;
76610;SDS011;65503;48.534;9.062;2023-09-18T08:15:39;7.10;;;2.08;;
76610;SDS011;65503;48.534;9.062;2023-09-18T08:18:06;7.32;;;1.70;;
76610;SDS011;65503;48.534;9.062;2023-09-18T08:20:33;5.72;;;1.40;;
76610;SDS011;65503;48.534;9.062;2023-09-18T08:22:59;4.75;;;1.80;;
76610;SDS011;65503;48.534;9.062;2023-09-18T08:25:29;5.20;;;1.88;;
76610;SDS011;65503;48.534;9.062;2023-09-18T08:27:57;5.47;;;1.45;;
76610;SDS011;65503;48.534;9.062;2023-09-18T08:30:23;8.07;;;1.85;;
76610;SDS011;65503;48.534;9.062;2023-09-18T08:32:50;6.95;;;1.70;;
76610;SDS011;65503;48.534;9.062;2023-09-18T08:35:17;6.97;;;2.10;;
76610;SDS011;65503;48.534;9.062;2023-09-18T08:37:43;9.57;;;2.00;;
76610;SDS011;65503;48.534;9.062;2023-09-18T08:40:10;7.15;;;1.85;;
76610;SDS011;65503;48.534;9.062;2023-09-18T08:42:49;4.40;;;1.73;;
76610;SDS011;65503;48.534;9.062;2023-09-18T08:45:23;9.05;;;2.20;;
76610;SDS011;65503;48.534;9.062;2023-09-18T08:47:56;4.82;;;1.55;;
76610;SDS011;65503;48.534;9.062;2023-09-18T08:50:23;8.43;;;2.58;;
76610;SDS011;65503;48.534;9.062;2023-09-18T08:52:51;7.80;;;2.55;;
76610;SDS011;65503;48.534;9.062;2023-09-18T08:57:45;5.55;;;1.70;;
76610;SDS011;65503;48.534;9.062;2023-09-18T09:00:12;5.72;;;1.60;;
76610;SDS011;65503;48.534;9.062;2023-09-18T09:02:43;4.45;;;1.55;;
76610;SDS011;65503;48.534;9.062;2023-09-18T09:05:11;5.53;;;1.67;;
76610;SDS011;65503;48.534;9.062;2023-09-18T09:10:04;5.20;;;1.77;;
76610;SDS011;65503;48.534;9.062;2023-09-18T09:17:45;4.95;;;1.73;;
76610;SDS011;65503;48.534;9.062;2023-09-18T09:20:13;7.43;;;1.50;;
76610;SDS011;65503;48.534;9.062;2023-09-18T09:22:41;3.83;;;1.65;;
76610;SDS011;65503;48.534;9.062;2023-09-18T09:27:46;7.18;;;1.58;;
76610;SDS011;65503;48.534;9.062;2023-09-18T09:30:23;4.70;;;1.40;;
76610;SDS011;65503;48.534;9.062;2023-09-18T09:32:52;2.70;;;1.45;;
76610;SDS011;65503;48.534;9.062;2023-09-18T09:35:23;6.00;;;1.17;;
76610;SDS011;65503;48.534;9.062;2023-09-18T09:37:50;5.28;;;1.88;;
76610;SDS011;65503;48.534;9.062;2023-09-18T09:40:22;5.90;;;1.60;;
76610;SDS011;65503;48.534;9.062;2023-09-18T09:42:50;4.50;;;1.35;;
76610;SDS011;65503;48.534;9.062;2023-09-18T09:45:20;4.85;;;1.35;;
76610;SDS011;65503;48.534;9.062;2023-09-18T09:47:47;4.57;;;1.42;;
76610;SDS011;65503;48.534;9.062;2023-09-18T09:50:14;6.07;;;1.20;;
76610;SDS011;65503;48.534;9.062;2023-09-18T09:52:51;3.42;;;1.17;;
76610;SDS011;65503;48.534;9.062;2023-09-18T09:57:47;6.28;;;1.30;;
76610;SDS011;65503;48.534;9.062;2023-09-18T10:00:15;4.57;;;1.35;;
76610;SDS011;65503;48.534;9.062;2023-09-18T10:02:57;2.60;;;1.20;;
76610;SDS011;65503;48.534;9.062;2023-09-18T10:05:30;4.78;;;1.20;;
76610;SDS011;65503;48.534;9.062;2023-09-18T10:08:02;6.35;;;1.42;;
76610;SDS011;65503;48.534;9.062;2023-09-18T10:10:31;7.45;;;1.70;;
76610;SDS011;65503;48.534;9.062;2023-09-18T10:13:02;3.70;;;1.50;;
76610;SDS011;65503;48.534;9.062;2023-09-18T10:15:36;4.20;;;1.30;;
76610;SDS011;65503;48.534;9.062;2023-09-18T10:18:05;6.78;;;1.50;;
76610;SDS011;65503;48.534;9.062;2023-09-18T10:20:39;5.80;;;1.33;;
76610;SDS011;65503;48.534;9.062;2023-09-18T10:23:12;7.07;;;2.30;;
76610;SDS011;65503;48.534;9.062;2023-09-18T10:28:23;3.03;;;1.27;;
76610;SDS011;65503;48.534;9.062;2023-09-18T10:30:50;2.92;;;1.15;;
76610;SDS011;65503;48.534;9.062;2023-09-18T10:33:17;7.43;;;1.08;;
76610;SDS011;65503;48.534;9.062;2023-09-18T10:35:44;5.75;;;1.77;;
76610;SDS011;65503;48.534;9.062;2023-09-18T10:38:14;4.72;;;1.30;;
76610;SDS011;65503;48.534;9.062;2023-09-18T10:40:43;4.25;;;1.15;;
76610;SDS011;65503;48.534;9.062;2023-09-18T10:43:09;2.65;;;1.50;;
76610;SDS011;65503;48.534;9.062;2023-09-18T10:45:37;4.30;;;1.20;;
76610;SDS011;65503;48.534;9.062;2023-09-18T10:48:05;2.90;;;1.25;;
76610;SDS011;65503;48.534;9.062;2023-09-18T10:50:34;2.17;;;1.15;;
76610;SDS011;65503;48.534;9.062;2023-09-18T10:53:01;2.72;;;1.35;;
76610;SDS011;65503;48.534;9.062;2023-09-18T10:55:28;3.00;;;1.20;;
76610;SDS011;65503;48.534;9.062;2023-09-18T10:57:56;4.20;;;1.38;;
76610;SDS011;65503;48.534;9.062;2023-09-18T11:00:25;2.58;;;1.27;;
76610;SDS011;65503;48.534;9.062;2023-09-18T11:02:54;5.03;;;1.90;;
76610;SDS011;65503;48.534;9.062;2023-09-18T11:05:36;3.13;;;1.50;;
76610;SDS011;65503;48.534;9.062;2023-09-18T11:08:23;4.13;;;1.90;;
76610;SDS011;65503;48.534;9.062;2023-09-18T11:10:57;5.40;;;1.92;;
76610;SDS011;65503;48.534;9.062;2023-09-18T11:13:31;4.28;;;1.60;;
76610;SDS011;65503;48.534;9.062;2023-09-18T11:16:00;5.05;;;1.42;;
76610;SDS011;65503;48.534;9.062;2023-09-18T11:18:39;3.92;;;1.40;;
76610;SDS011;65503;48.534;9.062;2023-09-18T11:21:06;4.85;;;1.73;;
76610;SDS011;65503;48.534;9.062;2023-09-18T11:23:34;4.18;;;1.65;;
76610;SDS011;65503;48.534;9.062;2023-09-18T11:26:10;4.05;;;1.50;;
76610;SDS011;65503;48.534;9.062;2023-09-18T11:28:37;5.55;;;1.50;;
76610;SDS011;65503;48.534;9.062;2023-09-18T11:36:14;4.68;;;1.70;;
76610;SDS011;65503;48.534;9.062;2023-09-18T11:38:57;4.35;;;1.40;;
76610;SDS011;65503;48.534;9.062;2023-09-18T11:41:30;7.75;;;1.65;;
76610;SDS011;65503;48.534;9.062;2023-09-18T11:46:41;4.05;;;1.35;;
76610;SDS011;65503;48.534;9.062;2023-09-18T11:49:12;2.13;;;1.15;;
76610;SDS011;65503;48.534;9.062;2023-09-18T11:51:39;2.55;;;1.10;;
76610;SDS011;65503;48.534;9.062;2023-09-18T11:54:06;5.50;;;2.10;;
76610;SDS011;65503;48.534;9.062;2023-09-18T11:56:34;5.03;;;1.35;;
76610;SDS011;65503;48.534;9.062;2023-09-18T11:59:00;4.20;;;1.30;;
76610;SDS011;65503;48.534;9.062;2023-09-18T12:01:31;2.38;;;1.17;;
76610;SDS011;65503;48.534;9.062;2023-09-18T12:04:02;3.03;;;1.10;;
76610;SDS011;65503;48.534;9.062;2023-09-18T12:06:35;3.03;;;1.20;;
76610;SDS011;65503;48.534;9.062;2023-09-18T12:09:06;5.00;;;1.58;;
76610;SDS011;65503;48.534;9.062;2023-09-18T12:11:33;3.83;;;1.20;;
76610;SDS011;65503;48.534;9.062;2023-09-18T12:14:05;6.32;;;1.98;;
76610;SDS011;65503;48.534;9.062;2023-09-18T12:16:37;3.13;;;1.20;;
76610;SDS011;65503;48.534;9.062;2023-09-18T12:19:05;6.88;;;1.15;;
76610;SDS011;65503;48.534;9.062;2023-09-18T12:21:33;2.83;;;1.13;;
76610;SDS011;65503;48.534;9.062;2023-09-18T12:24:06;4.72;;;1.10;;
76610;SDS011;65503;48.534;9.062;2023-09-18T12:26:33;3.10;;;0.90;;
76610;SDS011;65503;48.534;9.062;2023-09-18T12:28:59;2.75;;;1.13;;
76610;SDS011;65503;48.534;9.062;2023-09-18T12:31:26;2.65;;;0.98;;
76610;SDS011;65503;48.534;9.062;2023-09-18T12:33:53;2.53;;;1.02;;
76610;SDS011;65503;48.534;9.062;2023-09-18T12:36:19;2.88;;;1.10;;
76610;SDS011;65503;48.534;9.062;2023-09-18T12:38:56;1.23;;;0.80;;
76610;SDS011;65503;48.534;9.062;2023-09-18T12:41:24;4.72;;;1.00;;
76610;SDS011;65503;48.534;9.062;2023-09-18T12:43:57;3.38;;;1.20;;
76610;SDS011;65503;48.534;9.062;2023-09-18T12:46:24;1.58;;;0.90;;
76610;SDS011;65503;48.534;9.062;2023-09-18T12:48:51;1.95;;;1.13;;
76610;SDS011;65503;48.534;9.062;2023-09-18T12:51:18;3.75;;;1.10;;
76610;SDS011;65503;48.534;9.062;2023-09-18T12:53:58;3.75;;;1.08;;
76610;SDS011;65503;48.534;9.062;2023-09-18T12:56:26;2.10;;;0.85;;
76610;SDS011;65503;48.534;9.062;2023-09-18T12:58:53;1.52;;;0.80;;
76610;SDS011;65503;48.534;9.062;2023-09-18T13:01:27;3.38;;;1.20;;
76610;SDS011;65503;48.534;9.062;2023-09-18T13:03:54;3.20;;;1.00;;
76610;SDS011;65503;48.534;9.062;2023-09-18T13:06:26;4.55;;;1.00;;
76610;SDS011;65503;48.534;9.062;2023-09-18T13:08:52;3.22;;;0.95;;
76610;SDS011;65503;48.534;9.062;2023-09-18T13:11:19;3.47;;;0.98;;
76610;SDS011;65503;48.534;9.062;2023-09-18T13:13:46;5.10;;;1.02;;
76610;SDS011;65503;48.534;9.062;2023-09-18T13:16:23;4.53;;;1.17;;
76610;SDS011;65503;48.534;9.062;2023-09-18T13:18:49;3.08;;;1.10;;
76610;SDS011;65503;48.534;9.062;2023-09-18T13:21:16;3.38;;;1.42;;
76610;SDS011;65503;48.534;9.062;2023-09-18T13:23:42;4.68;;;1.35;;
76610;SDS011;65503;48.534;9.062;2023-09-18T13:26:09;2.58;;;1.02;;
76610;SDS011;65503;48.534;9.062;2023-09-18T13:28:36;3.00;;;1.10;;
76610;SDS011;65503;48.534;9.062;2023-09-18T13:31:03;3.90;;;1.08;;
76610;SDS011;65503;48.534;9.062;2023-09-18T13:33:31;2.95;;;1.10;;
76610;SDS011;65503;48.534;9.062;2023-09-18T13:36:01;3.60;;;1.10;;
76610;SDS011;65503;48.534;9.062;2023-09-18T13:38:28;1.85;;;1.08;;
76610;SDS011;65503;48.534;9.062;2023-09-18T13:40:54;4.38;;;1.02;;
76610;SDS011;65503;48.534;9.062;2023-09-18T13:43:21;3.95;;;0.95;;
76610;SDS011;65503;48.534;9.062;2023-09-18T13:45:48;3.47;;;1.00;;
76610;SDS011;65503;48.534;9.062;2023-09-18T13:48:19;2.25;;;1.05;;
76610;SDS011;65503;48.534;9.062;2023-09-18T13:50:46;1.73;;;0.90;;
76610;SDS011;65503;48.534;9.062;2023-09-18T13:53:13;3.28;;;1.00;;
76610;SDS011;65503;48.534;9.062;2023-09-18T13:55:40;4.95;;;1.10;;
76610;SDS011;65503;48.534;9.062;2023-09-18T13:58:08;3.15;;;1.20;;
76610;SDS011;65503;48.534;9.062;2023-09-18T14:00:35;1.85;;;0.98;;
76610;SDS011;65503;48.534;9.062;2023-09-18T14:03:02;2.55;;;1.02;;
76610;SDS011;65503;48.534;9.062;2023-09-18T14:05:32;3.50;;;1.27;;
76610;SDS011;65503;48.534;9.062;2023-09-18T14:08:00;2.95;;;0.98;;
76610;SDS011;65503;48.534;9.062;2023-09-18T14:10:27;2.50;;;0.93;;
76610;SDS011;65503;48.534;9.062;2023-09-18T14:12:54;2.15;;;1.00;;
76610;SDS011;65503;48.534;9.062;2023-09-18T14:15:20;1.67;;;0.95;;
76610;SDS011;65503;48.534;9.062;2023-09-18T14:17:47;1.80;;;1.00;;
76610;SDS011;65503;48.534;9.062;2023-09-18T14:20:14;2.47;;;0.90;;
76610;SDS011;65503;48.534;9.062;2023-09-18T14:22:44;2.60;;;0.90;;
76610;SDS011;65503;48.534;9.062;2023-09-18T14:25:12;2.10;;;0.90;;
76610;SDS011;65503;48.534;9.062;2023-09-18T14:27:39;4.53;;;1.10;;
76610;SDS011;65503;48.534;9.062;2023-09-18T14:32:34;3.22;;;1.10;;
76610;SDS011;65503;48.534;9.062;2023-09-18T14:35:05;3.60;;;1.00;;
76610;SDS011;65503;48.534;9.062;2023-09-18T14:37:34;2.42;;;1.00;;
76610;SDS011;65503;48.534;9.062;2023-09-18T14:40:02;2.78;;;1.30;;
76610;SDS011;65503;48.534;9.062;2023-09-18T14:42:29;5.97;;;1.20;;
76610;SDS011;65503;48.534;9.062;2023-09-18T14:44:55;1.30;;;0.80;;
76610;SDS011;65503;48.534;9.062;2023-09-18T14:47:22;2.58;;;0.90;;
76610;SDS011;65503;48.534;9.062;2023-09-18T14:49:50;2.15;;;1.02;;
76610;SDS011;65503;48.534;9.062;2023-09-18T14:52:17;3.03;;;1.30;;
76610;SDS011;65503;48.534;9.062;2023-09-18T14:54:45;2.80;;;0.88;;
76610;SDS011;65503;48.534;9.062;2023-09-18T14:57:11;4.90;;;1.20;;
76610;SDS011;65503;48.534;9.062;2023-09-18T14:59:38;2.17;;;0.95;;
76610;SDS011;65503;48.534;9.062;2023-09-18T15:02:08;2.10;;;0.90;;
76610;SDS011;65503;48.534;9.062;2023-09-18T15:04:34;1.98;;;1.00;;
76610;SDS011;65503;48.534;9.062;2023-09-18T15:07:01;2.78;;;1.00;;
76610;SDS011;65503;48.534;9.062;2023-09-18T15:09:28;2.80;;;1.00;;
76610;SDS011;65503;48.534;9.062;2023-09-18T15:11:55;1.73;;;1.13;;
76610;SDS011;65503;48.534;9.062;2023-09-18T15:14:22;2.50;;;1.27;;
76610;SDS011;65503;48.534;9.062;2023-09-18T15:16:48;1.98;;;1.20;;
76610;SDS011;65503;48.534;9.062;2023-09-18T15:19:15;2.60;;;1.23;;
76610;SDS011;65503;48.534;9.062;2023-09-18T15:21:45;3.60;;;1.02;;
76610;SDS011;65503;48.534;9.062;2023-09-18T15:24:12;1.80;;;0.95;;